createdAt,value
2022-10-05T00:00:32.327Z,3.25
2022-10-05T00:04:44.714Z,3.13
2022-10-05T00:08:57.388Z,3.58
2022-10-05T00:13:21.211Z,3.65
2022-10-05T00:17:33.508Z,3.67
2022-10-05T00:21:45.817Z,4.05
2022-10-05T00:26:15.076Z,3.63
2022-10-05T00:34:48.855Z,3.20
2022-10-05T00:39:02.869Z,3.70
2022-10-05T00:43:42.927Z,3.78
2022-10-05T00:48:01.369Z,3.78
2022-10-05T00:52:20.995Z,3.85
2022-10-05T00:56:36.437Z,3.47
2022-10-05T01:01:04.074Z,3.70
2022-10-05T01:05:22.373Z,4.35
2022-10-05T01:09:53.119Z,3.30
2022-10-05T01:14:20.504Z,3.85
2022-10-05T01:18:42.841Z,3.50
2022-10-05T01:23:32.243Z,3.47
2022-10-05T01:28:04.865Z,3.60
2022-10-05T01:32:24.505Z,3.10
2022-10-05T01:36:45.906Z,3.63
2022-10-05T01:41:13.614Z,3.22
2022-10-05T01:46:02.042Z,2.90
2022-10-05T01:50:17.075Z,2.67
2022-10-05T01:54:47.549Z,2.85
2022-10-05T01:59:32.984Z,2.70
2022-10-05T02:03:50.912Z,2.75
2022-10-05T02:08:09.156Z,2.72
2022-10-05T02:12:24.449Z,3.08
2022-10-05T02:16:44.279Z,2.67
2022-10-05T02:20:59.851Z,2.60
2022-10-05T02:25:16.765Z,2.30
2022-10-05T02:29:34.034Z,2.70
2022-10-05T02:33:46.532Z,2.75
2022-10-05T02:38:34.488Z,3.08
2022-10-05T02:43:02.145Z,2.83
2022-10-05T02:47:29.081Z,2.60
2022-10-05T02:52:24.029Z,3.00
2022-10-05T02:56:49.133Z,2.50
2022-10-05T03:01:22.272Z,1.90
2022-10-05T03:05:42.661Z,2.13
2022-10-05T03:10:02.951Z,2.20
2022-10-05T03:14:23.848Z,2.10
2022-10-05T03:18:55.878Z,2.15
2022-10-05T03:23:18.528Z,2.08
2022-10-05T03:27:38.810Z,2.03
2022-10-05T03:32:11.797Z,1.73
2022-10-05T03:36:53.256Z,2.15
2022-10-05T03:41:28.741Z,2.05
2022-10-05T03:45:54.361Z,2.20
2022-10-05T03:50:12.850Z,2.35
2022-10-05T03:54:38.630Z,2.40
2022-10-05T03:59:00.163Z,2.10
2022-10-05T04:03:50.819Z,2.05
2022-10-05T04:08:10.979Z,2.30
2022-10-05T04:12:31.324Z,2.13
2022-10-05T04:16:48.897Z,1.83
2022-10-05T04:21:22.776Z,1.85
2022-10-05T04:25:43.423Z,2.20
2022-10-05T04:30:06.047Z,1.70
2022-10-05T04:34:52.241Z,2.20
2022-10-05T04:39:21.756Z,1.88
2022-10-05T04:43:46.665Z,1.95
2022-10-05T04:48:09.174Z,2.17
2022-10-05T04:52:35.467Z,2.15
2022-10-05T04:56:58.635Z,2.50
2022-10-05T05:01:35.644Z,2.13
2022-10-05T05:06:17.766Z,1.98
2022-10-05T05:10:54.732Z,2.17
2022-10-05T05:15:36.107Z,1.92
2022-10-05T05:19:48.495Z,2.28
2022-10-05T05:24:12.253Z,2.08
2022-10-05T05:28:47.593Z,2.33
2022-10-05T05:33:18.445Z,2.00
2022-10-05T05:37:39.914Z,1.80
2022-10-05T05:42:33.803Z,2.08
2022-10-05T05:47:04.130Z,2.65
2022-10-05T05:51:35.895Z,2.05
2022-10-05T05:56:00.024Z,1.80
2022-10-05T06:00:28.463Z,2.55
2022-10-05T06:05:16.390Z,1.90
2022-10-05T06:09:38.228Z,1.92
2022-10-05T06:13:51.884Z,1.50
2022-10-05T06:18:16.372Z,1.60
2022-10-05T06:22:38.024Z,2.00
2022-10-05T06:27:25.387Z,2.17
2022-10-05T06:32:00.578Z,1.60
2022-10-05T06:36:33.604Z,1.52
2022-10-05T06:41:01.138Z,1.73
2022-10-05T06:45:26.102Z,1.50
2022-10-05T06:49:59.049Z,1.58
2022-10-05T06:54:32.957Z,1.60
2022-10-05T06:59:15.593Z,1.48
2022-10-05T07:04:05.088Z,1.50
2022-10-05T07:08:47.935Z,2.03
2022-10-05T07:13:27.479Z,1.40
2022-10-05T07:17:57.923Z,1.63
2022-10-05T07:22:33.509Z,1.30
2022-10-05T07:26:56.618Z,1.75
2022-10-05T07:31:18.250Z,1.30
2022-10-05T07:36:01.471Z,1.30
2022-10-05T07:40:30.526Z,1.25
2022-10-05T07:44:58.169Z,1.42
2022-10-05T07:49:22.684Z,1.30
2022-10-05T07:53:41.868Z,1.20
2022-10-05T07:58:20.966Z,1.05
2022-10-05T08:02:41.051Z,1.13
2022-10-05T08:06:58.721Z,1.35
2022-10-05T08:11:23.938Z,1.20
2022-10-05T08:15:45.569Z,1.30
2022-10-05T08:20:37.536Z,1.30
2022-10-05T08:25:04.198Z,1.17
2022-10-05T08:29:43.548Z,1.35
2022-10-05T08:34:18.227Z,1.25
2022-10-05T08:38:34.178Z,1.20
2022-10-05T08:42:49.331Z,1.23
2022-10-05T08:47:40.748Z,1.00
2022-10-05T08:52:31.443Z,1.00
2022-10-05T08:56:51.654Z,0.88
2022-10-05T09:01:07.060Z,1.00
2022-10-05T09:05:38.148Z,1.27
2022-10-05T09:10:24.067Z,1.30
2022-10-05T09:15:13.604Z,1.17
2022-10-05T09:19:45.240Z,1.23
2022-10-05T09:24:48.595Z,1.45
2022-10-05T09:29:27.543Z,0.90
2022-10-05T09:33:58.182Z,1.38
2022-10-05T09:38:34.394Z,1.20
2022-10-05T09:43:06.605Z,1.00
2022-10-05T09:48:00.680Z,0.90
2022-10-05T09:52:34.748Z,0.77
2022-10-05T09:57:32.204Z,1.00
2022-10-05T10:02:20.602Z,0.80
2022-10-05T10:06:45.215Z,0.90
2022-10-05T10:11:36.641Z,0.80
2022-10-05T10:16:04.343Z,0.80
2022-10-05T10:20:29.031Z,1.00
2022-10-05T10:25:29.577Z,0.90
2022-10-05T10:30:12.776Z,0.90
2022-10-05T10:34:50.951Z,0.88
2022-10-05T10:39:32.428Z,0.90
2022-10-05T10:44:09.751Z,0.82
2022-10-05T10:48:21.984Z,0.80
2022-10-05T10:52:58.512Z,1.00
2022-10-05T10:57:15.952Z,0.90
2022-10-05T11:01:35.499Z,0.90
2022-10-05T11:06:03.137Z,0.90
2022-10-05T11:10:37.046Z,0.90
2022-10-05T11:15:06.779Z,0.80
2022-10-05T11:19:40.066Z,0.95
2022-10-05T11:24:44.640Z,0.93
2022-10-05T11:29:11.963Z,0.90
2022-10-05T11:33:48.987Z,0.90
2022-10-05T11:38:22.565Z,0.90
2022-10-05T11:43:02.680Z,0.90
2022-10-05T11:47:23.728Z,1.10
2022-10-05T11:51:41.859Z,0.90
2022-10-05T11:56:12.407Z,0.82
2022-10-05T12:00:37.046Z,1.00
2022-10-05T12:05:07.782Z,0.80
2022-10-05T12:09:38.925Z,1.00
2022-10-05T12:13:58.905Z,1.00
2022-10-05T12:18:33.473Z,0.90
2022-10-05T12:23:18.704Z,1.00
2022-10-05T12:27:41.788Z,1.00
2022-10-05T12:32:12.284Z,0.90
2022-10-05T12:36:59.316Z,0.98
2022-10-05T12:41:28.253Z,1.10
2022-10-05T12:45:40.539Z,0.85
2022-10-05T12:50:14.078Z,1.20
2022-10-05T12:54:47.340Z,0.80
2022-10-05T12:59:05.384Z,1.00
2022-10-05T13:03:35.140Z,0.70
2022-10-05T13:08:02.148Z,0.90
2022-10-05T13:12:36.967Z,1.00
2022-10-05T13:17:06.920Z,0.90
2022-10-05T13:21:48.064Z,1.50
2022-10-05T13:26:08.880Z,0.80
2022-10-05T13:30:22.541Z,0.80
2022-10-05T13:34:44.131Z,0.80
2022-10-05T13:39:08.764Z,1.10
2022-10-05T13:43:34.257Z,0.80
2022-10-05T13:48:08.148Z,0.88
2022-10-05T13:52:51.414Z,0.73
2022-10-05T13:57:30.810Z,0.90
2022-10-05T14:02:21.497Z,1.05
2022-10-05T14:06:37.467Z,0.60
2022-10-05T14:10:49.898Z,0.90
2022-10-05T14:15:20.260Z,1.10
2022-10-05T14:19:44.110Z,0.98
2022-10-05T14:23:59.692Z,1.20
2022-10-05T14:28:32.743Z,0.77
2022-10-05T14:33:03.939Z,0.90
2022-10-05T14:37:32.336Z,1.20
2022-10-05T14:41:51.293Z,1.20
2022-10-05T14:46:23.262Z,1.05
2022-10-05T14:50:53.011Z,0.80
2022-10-05T14:55:15.116Z,0.90
2022-10-05T14:59:44.248Z,0.70
2022-10-05T15:04:21.697Z,0.90
2022-10-05T15:08:55.573Z,0.80
2022-10-05T15:13:20.705Z,0.80
2022-10-05T15:18:06.562Z,1.00
2022-10-05T15:22:42.020Z,0.90
2022-10-05T15:26:57.223Z,0.80
2022-10-05T15:31:20.615Z,0.70
2022-10-05T15:35:49.179Z,1.33
2022-10-05T15:40:18.652Z,1.42
2022-10-05T15:44:41.987Z,1.40
2022-10-05T15:49:20.493Z,1.30
2022-10-05T15:53:37.898Z,1.05
2022-10-05T15:57:57.483Z,1.58
2022-10-05T16:02:23.647Z,0.95
2022-10-05T16:07:06.267Z,1.10
2022-10-05T16:11:23.667Z,1.05
2022-10-05T16:15:47.181Z,1.05
2022-10-05T16:20:19.587Z,1.13
2022-10-05T16:25:07.425Z,1.13
2022-10-05T16:29:29.624Z,1.20
2022-10-05T16:33:55.116Z,1.20
2022-10-05T16:38:25.459Z,1.00
2022-10-05T16:43:01.982Z,0.90
2022-10-05T16:47:36.678Z,1.02
2022-10-05T16:52:02.366Z,1.38
2022-10-05T16:56:22.789Z,1.60
2022-10-05T17:00:35.153Z,1.60
2022-10-05T17:04:59.708Z,1.48
2022-10-05T17:09:22.964Z,2.15
2022-10-05T17:13:41.840Z,1.30
2022-10-05T17:18:06.395Z,1.00
2022-10-05T17:22:24.368Z,1.10
2022-10-05T17:26:58.577Z,0.90
2022-10-05T17:31:22.649Z,1.20
2022-10-05T17:35:54.047Z,1.52
2022-10-05T17:40:38.623Z,1.00
2022-10-05T17:44:55.270Z,1.30
2022-10-05T17:49:26.164Z,1.20
2022-10-05T17:54:02.932Z,1.00
2022-10-05T17:58:24.472Z,1.33
2022-10-05T18:02:38.145Z,1.08
2022-10-05T18:06:53.534Z,1.30
2022-10-05T18:11:14.011Z,0.90
2022-10-05T18:15:26.289Z,1.00
2022-10-05T18:19:40.365Z,1.40
2022-10-05T18:23:52.604Z,0.85
2022-10-05T18:28:28.744Z,1.10
2022-10-05T18:33:19.529Z,1.10
2022-10-05T18:38:22.654Z,1.70
2022-10-05T18:42:45.346Z,2.70
2022-10-05T18:47:13.673Z,2.42
2022-10-05T18:51:39.064Z,2.40
2022-10-05T18:56:12.776Z,1.80
2022-10-05T19:00:32.495Z,2.00
2022-10-05T19:04:44.731Z,1.98
2022-10-05T19:09:09.209Z,1.58
2022-10-05T19:13:24.443Z,1.50
2022-10-05T19:18:05.345Z,1.70
2022-10-05T19:22:37.866Z,1.63
2022-10-05T19:27:02.292Z,1.45
2022-10-05T19:31:35.768Z,1.60
2022-10-05T19:36:08.112Z,1.20
2022-10-05T19:40:31.251Z,1.40
2022-10-05T19:45:16.794Z,1.20
2022-10-05T19:49:48.776Z,1.20
2022-10-05T19:54:07.316Z,1.20
2022-10-05T19:58:32.401Z,1.80
2022-10-05T20:02:45.356Z,1.45
2022-10-05T20:06:57.741Z,1.50
2022-10-05T20:11:11.750Z,1.40
2022-10-05T20:15:48.181Z,1.58
2022-10-05T20:20:26.344Z,1.90
2022-10-05T20:24:51.506Z,1.60
2022-10-05T20:29:03.768Z,1.45
2022-10-05T20:33:16.097Z,1.70
2022-10-05T20:37:28.382Z,1.63
2022-10-05T20:41:40.703Z,1.52
2022-10-05T20:45:56.685Z,1.60
2022-10-05T20:50:10.929Z,1.80
2022-10-05T20:54:26.840Z,1.50
2022-10-05T20:58:39.121Z,1.80
2022-10-05T21:02:51.425Z,1.77
2022-10-05T21:07:06.199Z,1.65
2022-10-05T21:11:18.848Z,1.92
2022-10-05T21:15:31.124Z,1.88
2022-10-05T21:19:43.381Z,1.85
2022-10-05T21:23:55.697Z,2.08
2022-10-05T21:28:08.911Z,2.10
2022-10-05T21:32:22.765Z,1.77
2022-10-05T21:36:35.707Z,2.00
2022-10-05T21:40:48.011Z,1.58
2022-10-05T21:45:00.287Z,1.65
2022-10-05T21:49:20.694Z,1.85
2022-10-05T21:53:35.863Z,1.55
2022-10-05T21:57:48.431Z,1.75
2022-10-05T22:02:00.719Z,1.60
2022-10-05T22:06:13.000Z,1.65
2022-10-05T22:10:25.823Z,1.23
2022-10-05T22:14:38.085Z,1.40
2022-10-05T22:18:51.024Z,1.35
2022-10-05T22:23:03.443Z,1.20
2022-10-05T22:27:17.598Z,1.90
2022-10-05T22:31:29.945Z,1.73
2022-10-05T22:35:42.309Z,1.58
2022-10-05T22:39:55.987Z,1.88
2022-10-05T22:44:08.344Z,1.45
2022-10-05T22:48:20.829Z,1.35
2022-10-05T22:52:33.185Z,1.60
2022-10-05T22:56:45.464Z,1.70
2022-10-05T23:01:01.979Z,1.77
2022-10-05T23:05:15.362Z,1.60
2022-10-05T23:09:27.694Z,1.20
2022-10-05T23:13:48.761Z,1.63
2022-10-05T23:18:01.573Z,1.60
2022-10-05T23:22:13.839Z,1.60
2022-10-05T23:26:26.927Z,1.45
2022-10-05T23:30:39.237Z,1.50
2022-10-05T23:34:51.573Z,1.65
2022-10-05T23:39:03.976Z,1.70
2022-10-05T23:43:16.343Z,1.33
2022-10-05T23:47:28.797Z,1.52
2022-10-05T23:51:45.952Z,1.73
2022-10-05T23:55:58.235Z,1.55
